sensor_id;sensor_type;location;lat;lon;timestamp;pressure;altitude;pressure_sealevel;temperature;humidity
69306;BME280;56427;51.580;4.656;2023-11-18T00:01:32;102397.00;;;5.43;98.08
69306;BME280;56427;51.580;4.656;2023-11-18T00:04:00;102400.41;;;5.46;97.86
69306;BME280;56427;51.580;4.656;2023-11-18T00:06:26;102396.16;;;5.34;97.83
69306;BME280;56427;51.580;4.656;2023-11-18T00:08:51;102384.13;;;5.33;98.02
69306;BME280;56427;51.580;4.656;2023-11-18T00:11:17;102383.28;;;5.30;98.17
69306;BME280;56427;51.580;4.656;2023-11-18T00:13:44;102385.88;;;5.21;98.25
69306;BME280;56427;51.580;4.656;2023-11-18T00:16:10;102385.03;;;5.22;98.47
69306;BME280;56427;51.580;4.656;2023-11-18T00:18:41;102384.16;;;5.24;98.80
69306;BME280;56427;51.580;4.656;2023-11-18T00:21:07;102379.03;;;5.12;98.64
69306;BME280;56427;51.580;4.656;2023-11-18T00:23:33;102376.44;;;5.17;98.74
69306;BME280;56427;51.580;4.656;2023-11-18T00:25:59;102375.59;;;5.10;98.58
69306;BME280;56427;51.580;4.656;2023-11-18T00:28:24;102371.31;;;5.10;98.56
69306;BME280;56427;51.580;4.656;2023-11-18T00:30:49;102374.72;;;5.06;98.69
69306;BME280;56427;51.580;4.656;2023-11-18T00:33:15;102381.59;;;5.06;98.80
69306;BME280;56427;51.580;4.656;2023-11-18T00:35:40;102373.88;;;5.06;98.75
69306;BME280;56427;51.580;4.656;2023-11-18T00:38:06;102374.72;;;5.06;98.71
69306;BME280;56427;51.580;4.656;2023-11-18T00:40:31;102383.28;;;5.08;98.56
69306;BME280;56427;51.580;4.656;2023-11-18T00:42:57;102368.72;;;5.12;98.76
69306;BME280;56427;51.580;4.656;2023-11-18T00:45:22;102380.72;;;5.18;98.57
69306;BME280;56427;51.580;4.656;2023-11-18T00:47:48;102378.16;;;5.14;98.68
69306;BME280;56427;51.580;4.656;2023-11-18T00:50:13;102380.72;;;5.19;98.42
69306;BME280;56427;51.580;4.656;2023-11-18T00:52:39;102389.28;;;5.21;98.75
69306;BME280;56427;51.580;4.656;2023-11-18T00:55:07;102392.69;;;5.34;98.57
69306;BME280;56427;51.580;4.656;2023-11-18T00:57:34;102391.00;;;5.21;98.71
69306;BME280;56427;51.580;4.656;2023-11-18T00:59:59;102391.88;;;5.20;98.65
69306;BME280;56427;51.580;4.656;2023-11-18T01:02:24;102395.31;;;5.22;98.95
69306;BME280;56427;51.580;4.656;2023-11-18T01:04:50;102391.84;;;5.21;98.81
69306;BME280;56427;51.580;4.656;2023-11-18T01:07:16;102400.47;;;5.22;98.80
69306;BME280;56427;51.580;4.656;2023-11-18T01:09:42;102401.31;;;5.19;99.10
69306;BME280;56427;51.580;4.656;2023-11-18T01:12:07;102394.47;;;5.17;99.06
69306;BME280;56427;51.580;4.656;2023-11-18T01:14:36;102394.44;;;5.24;98.97
69306;BME280;56427;51.580;4.656;2023-11-18T01:17:03;102397.03;;;5.24;99.05
69306;BME280;56427;51.580;4.656;2023-11-18T01:19:28;102399.59;;;5.23;99.05
69306;BME280;56427;51.580;4.656;2023-11-18T01:21:54;102397.88;;;5.23;99.03
69306;BME280;56427;51.580;4.656;2023-11-18T01:24:20;102408.16;;;5.23;98.76
69306;BME280;56427;51.580;4.656;2023-11-18T01:26:47;102400.44;;;5.25;98.91
69306;BME280;56427;51.580;4.656;2023-11-18T01:29:12;102389.28;;;5.27;98.88
69306;BME280;56427;51.580;4.656;2023-11-18T01:31:38;102395.28;;;5.26;98.76
69306;BME280;56427;51.580;4.656;2023-11-18T01:34:06;102388.44;;;5.27;98.91
69306;BME280;56427;51.580;4.656;2023-11-18T01:36:32;102387.59;;;5.25;99.00
69306;BME280;56427;51.580;4.656;2023-11-18T01:38:58;102397.03;;;5.24;98.88
69306;BME280;56427;51.580;4.656;2023-11-18T01:41:23;102409.03;;;5.25;98.93
69306;BME280;56427;51.580;4.656;2023-11-18T01:43:48;102404.75;;;5.29;98.85
69306;BME280;56427;51.580;4.656;2023-11-18T01:46:16;102397.84;;;5.38;98.91
69306;BME280;56427;51.580;4.656;2023-11-18T01:48:42;102396.16;;;5.31;98.71
69306;BME280;56427;51.580;4.656;2023-11-18T01:51:09;102383.25;;;5.45;98.47
69306;BME280;56427;51.580;4.656;2023-11-18T01:53:36;102395.28;;;5.43;98.35
69306;BME280;56427;51.580;4.656;2023-11-18T01:56:04;102402.16;;;5.41;98.11
69306;BME280;56427;51.580;4.656;2023-11-18T01:58:32;102393.56;;;5.37;98.32
69306;BME280;56427;51.580;4.656;2023-11-18T02:00:57;102392.69;;;5.38;98.26
69306;BME280;56427;51.580;4.656;2023-11-18T02:03:23;102395.28;;;5.40;98.14
69306;BME280;56427;51.580;4.656;2023-11-18T02:05:49;102408.16;;;5.38;98.15
69306;BME280;56427;51.580;4.656;2023-11-18T02:08:14;102412.44;;;5.41;97.97
69306;BME280;56427;51.580;4.656;2023-11-18T02:10:48;102409.84;;;5.39;97.69
69306;BME280;56427;51.580;4.656;2023-11-18T02:13:24;102404.69;;;5.50;97.76
69306;BME280;56427;51.580;4.656;2023-11-18T02:15:53;102406.41;;;5.47;97.54
69306;BME280;56427;51.580;4.656;2023-11-18T02:18:26;102406.44;;;5.44;97.47
69306;BME280;56427;51.580;4.656;2023-11-18T02:20:54;102398.69;;;5.51;97.51
69306;BME280;56427;51.580;4.656;2023-11-18T02:23:20;102396.13;;;5.45;97.17
69306;BME280;56427;51.580;4.656;2023-11-18T02:25:47;102399.56;;;5.46;97.25
69306;BME280;56427;51.580;4.656;2023-11-18T02:28:13;102400.41;;;5.57;97.38
69306;BME280;56427;51.580;4.656;2023-11-18T02:30:39;102402.97;;;5.55;96.81
69306;BME280;56427;51.580;4.656;2023-11-18T02:33:33;102400.38;;;5.58;96.97
69306;BME280;56427;51.580;4.656;2023-11-18T02:36:09;102381.53;;;5.52;96.97
69306;BME280;56427;51.580;4.656;2023-11-18T02:38:39;102372.09;;;5.45;97.27
69306;BME280;56427;51.580;4.656;2023-11-18T02:41:08;102364.38;;;5.46;97.25
69306;BME280;56427;51.580;4.656;2023-11-18T02:43:35;102355.81;;;5.47;97.20
69306;BME280;56427;51.580;4.656;2023-11-18T02:46:04;102355.81;;;5.44;97.12
69306;BME280;56427;51.580;4.656;2023-11-18T02:48:30;102361.81;;;5.45;97.15
69306;BME280;56427;51.580;4.656;2023-11-18T02:50:58;102351.50;;;5.51;97.02
69306;BME280;56427;51.580;4.656;2023-11-18T02:53:24;102341.22;;;5.49;96.95
69306;BME280;56427;51.580;4.656;2023-11-18T02:55:49;102336.91;;;5.47;97.12
69306;BME280;56427;51.580;4.656;2023-11-18T02:58:17;102328.31;;;5.52;97.02
69306;BME280;56427;51.580;4.656;2023-11-18T03:00:42;102323.19;;;5.54;96.76
69306;BME280;56427;51.580;4.656;2023-11-18T03:03:10;102329.19;;;5.47;96.78
69306;BME280;56427;51.580;4.656;2023-11-18T03:05:36;102325.75;;;5.60;96.76
69306;BME280;56427;51.580;4.656;2023-11-18T03:08:01;102333.47;;;5.52;96.87
69306;BME280;56427;51.580;4.656;2023-11-18T03:10:28;102332.66;;;5.49;96.87
69306;BME280;56427;51.580;4.656;2023-11-18T03:12:55;102336.91;;;5.60;96.69
69306;BME280;56427;51.580;4.656;2023-11-18T03:15:21;102335.19;;;5.58;96.48
69306;BME280;56427;51.580;4.656;2023-11-18T03:17:48;102332.56;;;5.70;96.21
69306;BME280;56427;51.580;4.656;2023-11-18T03:20:19;102335.16;;;5.59;96.18
69306;BME280;56427;51.580;4.656;2023-11-18T03:22:47;102347.22;;;5.56;96.15
69306;BME280;56427;51.580;4.656;2023-11-18T03:25:13;102333.47;;;5.55;96.29
69306;BME280;56427;51.580;4.656;2023-11-18T03:27:39;102338.59;;;5.67;96.20
69306;BME280;56427;51.580;4.656;2023-11-18T03:30:06;102339.47;;;5.62;95.92
69306;BME280;56427;51.580;4.656;2023-11-18T03:32:34;102327.50;;;5.53;96.40
69306;BME280;56427;51.580;4.656;2023-11-18T03:35:00;102314.59;;;5.62;96.33
69306;BME280;56427;51.580;4.656;2023-11-18T03:37:25;102312.84;;;5.64;95.82
69306;BME280;56427;51.580;4.656;2023-11-18T03:39:52;102311.16;;;5.60;95.85
69306;BME280;56427;51.580;4.656;2023-11-18T03:42:17;102301.72;;;5.62;96.01
69306;BME280;56427;51.580;4.656;2023-11-18T03:44:42;102293.16;;;5.60;95.99
69306;BME280;56427;51.580;4.656;2023-11-18T03:47:08;102279.41;;;5.63;95.82
69306;BME280;56427;51.580;4.656;2023-11-18T03:49:33;102281.16;;;5.50;96.06
69306;BME280;56427;51.580;4.656;2023-11-18T03:51:59;102268.28;;;5.56;96.08
69306;BME280;56427;51.580;4.656;2023-11-18T03:54:24;102257.94;;;5.62;95.76
69306;BME280;56427;51.580;4.656;2023-11-18T03:56:50;102262.25;;;5.62;95.81
69306;BME280;56427;51.580;4.656;2023-11-18T03:59:15;102266.56;;;5.57;95.79
69306;BME280;56427;51.580;4.656;2023-11-18T04:01:41;102275.13;;;5.56;95.82
69306;BME280;56427;51.580;4.656;2023-11-18T04:04:06;102271.69;;;5.57;95.65
69306;BME280;56427;51.580;4.656;2023-11-18T04:06:32;102276.00;;;5.52;95.39
69306;BME280;56427;51.580;4.656;2023-11-18T04:08:57;102271.72;;;5.49;95.50
69306;BME280;56427;51.580;4.656;2023-11-18T04:11:22;102276.88;;;5.54;95.80
69306;BME280;56427;51.580;4.656;2023-11-18T04:13:49;102265.72;;;5.50;95.70
69306;BME280;56427;51.580;4.656;2023-11-18T04:16:15;102256.28;;;5.54;95.71
69306;BME280;56427;51.580;4.656;2023-11-18T04:18:44;102248.56;;;5.54;95.98
69306;BME280;56427;51.580;4.656;2023-11-18T04:21:11;102233.97;;;5.56;95.66
69306;BME280;56427;51.580;4.656;2023-11-18T04:23:38;102222.00;;;5.49;95.76
69306;BME280;56427;51.580;4.656;2023-11-18T04:26:04;102219.34;;;5.58;95.43
69306;BME280;56427;51.580;4.656;2023-11-18T04:28:34;102218.56;;;5.48;95.54
69306;BME280;56427;51.580;4.656;2023-11-18T04:31:00;102226.25;;;5.51;95.67
69306;BME280;56427;51.580;4.656;2023-11-18T04:33:26;102223.72;;;5.48;95.78
69306;BME280;56427;51.580;4.656;2023-11-18T04:35:52;102226.25;;;5.50;95.69
69306;BME280;56427;51.580;4.656;2023-11-18T04:38:18;102229.69;;;5.55;95.66
69306;BME280;56427;51.580;4.656;2023-11-18T04:40:44;102229.66;;;5.58;95.73
69306;BME280;56427;51.580;4.656;2023-11-18T04:43:11;102230.53;;;5.52;95.35
69306;BME280;56427;51.580;4.656;2023-11-18T04:45:37;102225.38;;;5.55;95.66
69306;BME280;56427;51.580;4.656;2023-11-18T04:48:03;102219.34;;;5.61;95.53
69306;BME280;56427;51.580;4.656;2023-11-18T04:50:29;102220.25;;;5.54;95.40
69306;BME280;56427;51.580;4.656;2023-11-18T04:52:55;102209.97;;;5.54;95.33
69306;BME280;56427;51.580;4.656;2023-11-18T04:55:21;102206.44;;;5.68;95.21
69306;BME280;56427;51.580;4.656;2023-11-18T04:57:46;102202.22;;;5.54;95.37
69306;BME280;56427;51.580;4.656;2023-11-18T05:00:12;102200.47;;;5.62;95.18
69306;BME280;56427;51.580;4.656;2023-11-18T05:02:41;102191.88;;;5.63;94.83
69306;BME280;56427;51.580;4.656;2023-11-18T05:05:08;102192.75;;;5.59;95.00
69306;BME280;56427;51.580;4.656;2023-11-18T05:07:34;102186.75;;;5.60;94.97
69306;BME280;56427;51.580;4.656;2023-11-18T05:10:00;102190.16;;;5.63;94.83
69306;BME280;56427;51.580;4.656;2023-11-18T05:12:26;102191.88;;;5.63;94.63
69306;BME280;56427;51.580;4.656;2023-11-18T05:14:54;102170.44;;;5.62;94.38
69306;BME280;56427;51.580;4.656;2023-11-18T05:17:20;102174.72;;;5.66;94.56
69306;BME280;56427;51.580;4.656;2023-11-18T05:19:45;102172.97;;;5.67;94.49
69306;BME280;56427;51.580;4.656;2023-11-18T05:22:10;102174.66;;;5.74;94.37
69306;BME280;56427;51.580;4.656;2023-11-18T05:24:36;102166.94;;;5.71;93.93
69306;BME280;56427;51.580;4.656;2023-11-18T05:27:01;102178.97;;;5.72;93.97
69306;BME280;56427;51.580;4.656;2023-11-18T05:29:30;102165.19;;;5.79;93.65
69306;BME280;56427;51.580;4.656;2023-11-18T05:31:56;102160.88;;;5.81;93.23
69306;BME280;56427;51.580;4.656;2023-11-18T05:34:21;102165.16;;;5.81;93.40
69306;BME280;56427;51.580;4.656;2023-11-18T05:36:47;102166.88;;;5.82;93.55
69306;BME280;56427;51.580;4.656;2023-11-18T05:39:16;102165.97;;;5.84;93.14
69306;BME280;56427;51.580;4.656;2023-11-18T05:41:42;102149.66;;;5.93;93.12
69306;BME280;56427;51.580;4.656;2023-11-18T05:44:11;102144.53;;;5.91;93.17
69306;BME280;56427;51.580;4.656;2023-11-18T05:46:43;102135.91;;;5.88;93.40
69306;BME280;56427;51.580;4.656;2023-11-18T05:49:11;102127.34;;;5.87;92.92
69306;BME280;56427;51.580;4.656;2023-11-18T05:51:39;102130.78;;;5.86;92.95
69306;BME280;56427;51.580;4.656;2023-11-18T05:54:07;102123.03;;;5.89;93.07
69306;BME280;56427;51.580;4.656;2023-11-18T05:56:33;102105.88;;;5.93;92.73
69306;BME280;56427;51.580;4.656;2023-11-18T05:58:58;102105.84;;;5.96;92.68
69306;BME280;56427;51.580;4.656;2023-11-18T06:01:24;102104.09;;;5.97;92.46
69306;BME280;56427;51.580;4.656;2023-11-18T06:03:52;102118.72;;;5.90;92.51
69306;BME280;56427;51.580;4.656;2023-11-18T06:06:18;102132.47;;;5.89;92.92
69306;BME280;56427;51.580;4.656;2023-11-18T06:08:46;102129.91;;;5.87;93.01
69306;BME280;56427;51.580;4.656;2023-11-18T06:11:13;102117.88;;;5.89;93.07
69306;BME280;56427;51.580;4.656;2023-11-18T06:13:47;102105.94;;;5.82;93.24
69306;BME280;56427;51.580;4.656;2023-11-18T06:16:20;102098.19;;;5.84;93.09
69306;BME280;56427;51.580;4.656;2023-11-18T06:18:48;102103.38;;;5.79;93.30
69306;BME280;56427;51.580;4.656;2023-11-18T06:21:14;102103.38;;;5.79;93.52
69306;BME280;56427;51.580;4.656;2023-11-18T06:23:40;102110.22;;;5.85;93.54
69306;BME280;56427;51.580;4.656;2023-11-18T06:26:06;102099.03;;;5.84;93.39
69306;BME280;56427;51.580;4.656;2023-11-18T06:28:32;102100.78;;;5.81;93.31
69306;BME280;56427;51.580;4.656;2023-11-18T06:30:59;102101.56;;;5.89;93.44
69306;BME280;56427;51.580;4.656;2023-11-18T06:33:24;102101.56;;;5.95;93.42
69306;BME280;56427;51.580;4.656;2023-11-18T06:35:55;102106.75;;;5.84;93.18
69306;BME280;56427;51.580;4.656;2023-11-18T06:38:21;102098.16;;;5.88;93.21
69306;BME280;56427;51.580;4.656;2023-11-18T06:40:47;102111.03;;;5.91;92.99
69306;BME280;56427;51.580;4.656;2023-11-18T06:43:17;102108.44;;;5.90;93.32
69306;BME280;56427;51.580;4.656;2023-11-18T06:45:44;102103.31;;;5.84;93.42
69306;BME280;56427;51.580;4.656;2023-11-18T06:48:09;102093.00;;;5.88;93.54
69306;BME280;56427;51.580;4.656;2023-11-18T06:50:34;102099.03;;;5.84;93.63
69306;BME280;56427;51.580;4.656;2023-11-18T06:53:00;102111.91;;;5.83;93.45
69306;BME280;56427;51.580;4.656;2023-11-18T06:55:26;102116.19;;;5.84;93.50
69306;BME280;56427;51.580;4.656;2023-11-18T06:57:52;102100.75;;;5.91;93.30
69306;BME280;56427;51.580;4.656;2023-11-18T07:00:17;102096.41;;;5.98;93.34
69306;BME280;56427;51.580;4.656;2023-11-18T07:02:43;102101.56;;;5.90;93.18
69306;BME280;56427;51.580;4.656;2023-11-18T07:05:09;102101.53;;;5.97;93.15
69306;BME280;56427;51.580;4.656;2023-11-18T07:07:34;102092.13;;;5.94;92.70
69306;BME280;56427;51.580;4.656;2023-11-18T07:10:00;102093.75;;;6.03;92.77
69306;BME280;56427;51.580;4.656;2023-11-18T07:12:25;102090.34;;;6.04;92.36
69306;BME280;56427;51.580;4.656;2023-11-18T07:14:51;102092.91;;;6.05;92.39
69306;BME280;56427;51.580;4.656;2023-11-18T07:17:19;102098.84;;;6.09;92.58
69306;BME280;56427;51.580;4.656;2023-11-18T07:19:44;102097.09;;;6.14;92.53
69306;BME280;56427;51.580;4.656;2023-11-18T07:22:10;102093.59;;;6.19;92.43
69306;BME280;56427;51.580;4.656;2023-11-18T07:24:35;102100.50;;;6.16;92.31
69306;BME280;56427;51.580;4.656;2023-11-18T07:27:01;102094.50;;;6.15;92.23
69306;BME280;56427;51.580;4.656;2023-11-18T07:29:26;102098.75;;;6.19;92.20
69306;BME280;56427;51.580;4.656;2023-11-18T07:31:53;102096.16;;;6.21;92.19
69306;BME280;56427;51.580;4.656;2023-11-18T07:34:22;102089.28;;;6.23;92.12
69306;BME280;56427;51.580;4.656;2023-11-18T07:36:49;102101.31;;;6.24;91.96
69306;BME280;56427;51.580;4.656;2023-11-18T07:39:15;102101.25;;;6.27;91.91
69306;BME280;56427;51.580;4.656;2023-11-18T07:41:41;102083.22;;;6.29;92.24
69306;BME280;56427;51.580;4.656;2023-11-18T07:44:07;102089.19;;;6.32;92.25
69306;BME280;56427;51.580;4.656;2023-11-18T07:46:35;102087.50;;;6.30;92.39
69306;BME280;56427;51.580;4.656;2023-11-18T07:49:03;102079.72;;;6.33;92.37
69306;BME280;56427;51.580;4.656;2023-11-18T07:51:29;102091.75;;;6.34;92.32
69306;BME280;56427;51.580;4.656;2023-11-18T07:53:54;102080.53;;;6.38;92.58
69306;BME280;56427;51.580;4.656;2023-11-18T07:56:20;102086.53;;;6.38;92.76
69306;BME280;56427;51.580;4.656;2023-11-18T07:58:47;102090.81;;;6.39;92.65
69306;BME280;56427;51.580;4.656;2023-11-18T08:01:13;102081.38;;;6.41;92.76
69306;BME280;56427;51.580;4.656;2023-11-18T08:03:41;102060.69;;;6.46;92.91
69306;BME280;56427;51.580;4.656;2023-11-18T08:06:07;102069.28;;;6.45;92.99
69306;BME280;56427;51.580;4.656;2023-11-18T08:08:35;102076.16;;;6.47;93.06
69306;BME280;56427;51.580;4.656;2023-11-18T08:11:05;102073.56;;;6.49;93.17
69306;BME280;56427;51.580;4.656;2023-11-18T08:13:30;102067.56;;;6.45;93.38
69306;BME280;56427;51.580;4.656;2023-11-18T08:15:56;102075.19;;;6.53;93.39
69306;BME280;56427;51.580;4.656;2023-11-18T08:18:23;102075.22;;;6.52;93.24
69306;BME280;56427;51.580;4.656;2023-11-18T08:20:49;102070.03;;;6.53;93.56
69306;BME280;56427;51.580;4.656;2023-11-18T08:23:15;102062.25;;;6.58;93.59
69306;BME280;56427;51.580;4.656;2023-11-18T08:25:40;102064.03;;;6.53;93.31
69306;BME280;56427;51.580;4.656;2023-11-18T08:28:07;102058.75;;;6.65;93.61
69306;BME280;56427;51.580;4.656;2023-11-18T08:30:33;102057.88;;;6.67;93.33
69306;BME280;56427;51.580;4.656;2023-11-18T08:33:01;102061.34;;;6.63;93.37
69306;BME280;56427;51.580;4.656;2023-11-18T08:35:28;102057.03;;;6.67;93.55
69306;BME280;56427;51.580;4.656;2023-11-18T08:37:54;102052.72;;;6.67;93.43
69306;BME280;56427;51.580;4.656;2023-11-18T08:40:19;102052.63;;;6.72;93.54
69306;BME280;56427;51.580;4.656;2023-11-18T08:42:49;102049.13;;;6.79;93.61
69306;BME280;56427;51.580;4.656;2023-11-18T08:45:16;102048.25;;;6.80;93.84
69306;BME280;56427;51.580;4.656;2023-11-18T08:47:45;102043.88;;;6.84;94.01
69306;BME280;56427;51.580;4.656;2023-11-18T08:50:15;102036.22;;;6.78;93.94
69306;BME280;56427;51.580;4.656;2023-11-18T08:52:45;102018.06;;;6.87;94.29
69306;BME280;56427;51.580;4.656;2023-11-18T08:55:15;102019.00;;;6.81;94.39
69306;BME280;56427;51.580;4.656;2023-11-18T08:57:51;102015.56;;;6.81;94.66
69306;BME280;56427;51.580;4.656;2023-11-18T09:00:30;102005.22;;;6.85;95.08
69306;BME280;56427;51.580;4.656;2023-11-18T09:03:17;102010.38;;;6.85;95.01
69306;BME280;56427;51.580;4.656;2023-11-18T09:05:46;101998.28;;;6.87;95.09
69306;BME280;56427;51.580;4.656;2023-11-18T09:08:27;101988.84;;;6.86;95.30
69306;BME280;56427;51.580;4.656;2023-11-18T09:10:55;101973.34;;;6.88;95.71
69306;BME280;56427;51.580;4.656;2023-11-18T09:13:25;101977.63;;;6.89;95.92
69306;BME280;56427;51.580;4.656;2023-11-18T09:16:01;101981.94;;;6.88;96.00
69306;BME280;56427;51.580;4.656;2023-11-18T09:18:33;101972.44;;;6.90;96.32
69306;BME280;56427;51.580;4.656;2023-11-18T09:21:00;101967.28;;;6.92;96.30
69306;BME280;56427;51.580;4.656;2023-11-18T09:23:27;101990.38;;;6.99;96.33
69306;BME280;56427;51.580;4.656;2023-11-18T09:25:53;101991.28;;;6.95;96.04
69306;BME280;56427;51.580;4.656;2023-11-18T09:28:23;101983.50;;;6.97;96.19
69306;BME280;56427;51.580;4.656;2023-11-18T09:30:55;101972.28;;;7.01;96.63
69306;BME280;56427;51.580;4.656;2023-11-18T09:33:24;101963.66;;;7.02;96.77
69306;BME280;56427;51.580;4.656;2023-11-18T09:36:04;101955.97;;;7.00;96.85
69306;BME280;56427;51.580;4.656;2023-11-18T09:38:37;101942.19;;;7.01;96.61
69306;BME280;56427;51.580;4.656;2023-11-18T09:41:06;101937.78;;;7.08;96.75
69306;BME280;56427;51.580;4.656;2023-11-18T09:43:38;101934.25;;;7.14;96.68
69306;BME280;56427;51.580;4.656;2023-11-18T09:46:25;101941.06;;;7.18;96.77
69306;BME280;56427;51.580;4.656;2023-11-18T09:51:23;101922.13;;;7.19;96.73
69306;BME280;56427;51.580;4.656;2023-11-18T09:53:53;101907.41;;;7.25;96.69
69306;BME280;56427;51.580;4.656;2023-11-18T09:56:31;101903.75;;;7.37;96.96
69306;BME280;56427;51.580;4.656;2023-11-18T09:59:23;101898.53;;;7.40;97.12
69306;BME280;56427;51.580;4.656;2023-11-18T10:01:53;101893.38;;;7.39;97.00
69306;BME280;56427;51.580;4.656;2023-11-18T10:04:23;101900.94;;;7.49;97.11
69306;BME280;56427;51.580;4.656;2023-11-18T10:06:53;101894.97;;;7.46;96.93
69306;BME280;56427;51.580;4.656;2023-11-18T10:09:19;101895.78;;;7.48;97.16
69306;BME280;56427;51.580;4.656;2023-11-18T10:11:54;101880.28;;;7.49;96.99
69306;BME280;56427;51.580;4.656;2023-11-18T10:14:26;101883.63;;;7.56;97.08
69306;BME280;56427;51.580;4.656;2023-11-18T10:16:51;101876.75;;;7.55;97.11
69306;BME280;56427;51.580;4.656;2023-11-18T10:19:19;101880.16;;;7.57;96.92
69306;BME280;56427;51.580;4.656;2023-11-18T10:21:44;101882.66;;;7.62;97.16
69306;BME280;56427;51.580;4.656;2023-11-18T10:24:13;101880.03;;;7.63;97.29
69306;BME280;56427;51.580;4.656;2023-11-18T10:26:46;101871.41;;;7.64;97.16
69306;BME280;56427;51.580;4.656;2023-11-18T10:29:11;101862.03;;;7.58;97.40
69306;BME280;56427;51.580;4.656;2023-11-18T10:31:39;101862.00;;;7.62;97.48
69306;BME280;56427;51.580;4.656;2023-11-18T10:34:11;101865.34;;;7.65;97.75
69306;BME280;56427;51.580;4.656;2023-11-18T10:36:37;101868.00;;;7.62;97.99
69306;BME280;56427;51.580;4.656;2023-11-18T10:39:02;101858.44;;;7.66;98.28
69306;BME280;56427;51.580;4.656;2023-11-18T10:41:42;101838.78;;;7.58;98.41
69306;BME280;56427;51.580;4.656;2023-11-18T10:44:08;101817.28;;;7.58;98.73
69306;BME280;56427;51.580;4.656;2023-11-18T10:46:39;101813.00;;;7.57;99.20
69306;BME280;56427;51.580;4.656;2023-11-18T10:49:05;101810.41;;;7.58;99.26
69306;BME280;56427;51.580;4.656;2023-11-18T10:51:35;101811.25;;;7.61;99.48
69306;BME280;56427;51.580;4.656;2023-11-18T10:54:01;101819.75;;;7.64;99.65
69306;BME280;56427;51.580;4.656;2023-11-18T10:56:29;101814.72;;;7.58;99.76
69306;BME280;56427;51.580;4.656;2023-11-18T10:58:58;101777.75;;;7.56;99.66
69306;BME280;56427;51.580;4.656;2023-11-18T11:01:31;101746.69;;;7.59;99.88
69306;BME280;56427;51.580;4.656;2023-11-18T11:04:04;101727.72;;;7.60;99.87
69306;BME280;56427;51.580;4.656;2023-11-18T11:06:30;101732.88;;;7.62;99.94
69306;BME280;56427;51.580;4.656;2023-11-18T11:08:57;101719.94;;;7.63;99.82
69306;BME280;56427;51.580;4.656;2023-11-18T11:11:30;101718.09;;;7.68;99.81
69306;BME280;56427;51.580;4.656;2023-11-18T11:14:03;101708.66;;;7.67;99.66
69306;BME280;56427;51.580;4.656;2023-11-18T11:16:52;101698.28;;;7.69;99.56
69306;BME280;56427;51.580;4.656;2023-11-18T11:19:34;101700.00;;;7.70;99.55
69306;BME280;56427;51.580;4.656;2023-11-18T11:22:10;101689.56;;;7.73;99.74
69306;BME280;56427;51.580;4.656;2023-11-18T11:24:58;101689.56;;;7.73;99.58
69306;BME280;56427;51.580;4.656;2023-11-18T11:27:33;101676.59;;;7.76;99.50
69306;BME280;56427;51.580;4.656;2023-11-18T11:30:23;101669.59;;;7.81;99.61
69306;BME280;56427;51.580;4.656;2023-11-18T11:33:43;101660.13;;;7.81;99.60
69306;BME280;56427;51.580;4.656;2023-11-18T11:35:48;101661.03;;;7.79;99.40
69306;BME280;56427;51.580;4.656;2023-11-18T11:38:22;101648.09;;;7.80;99.15
69306;BME280;56427;51.580;4.656;2023-11-18T11:40:49;101654.97;;;7.81;99.29
69306;BME280;56427;51.580;4.656;2023-11-18T11:43:18;101658.34;;;7.83;99.21
69306;BME280;56427;51.580;4.656;2023-11-18T11:45:48;101655.81;;;7.82;98.92
69306;BME280;56427;51.580;4.656;2023-11-18T11:48:17;101659.19;;;7.84;98.88
69306;BME280;56427;51.580;4.656;2023-11-18T11:53:42;101638.47;;;7.87;98.95
69306;BME280;56427;51.580;4.656;2023-11-18T11:56:11;101631.59;;;7.86;99.03
69306;BME280;56427;51.580;4.656;2023-11-18T11:58:41;101636.78;;;7.86;98.79
69306;BME280;56427;51.580;4.656;2023-11-18T12:03:48;101619.44;;;7.90;98.55
69306;BME280;56427;51.580;4.656;2023-11-18T12:06:24;101620.25;;;7.92;98.50
69306;BME280;56427;51.580;4.656;2023-11-18T12:08:53;101626.41;;;7.88;98.65
69306;BME280;56427;51.580;4.656;2023-11-18T12:11:20;101602.22;;;7.90;98.85
69306;BME280;56427;51.580;4.656;2023-11-18T12:14:04;101599.56;;;7.93;98.85
69306;BME280;56427;51.580;4.656;2023-11-18T12:17:08;101591.81;;;7.93;98.71
69306;BME280;56427;51.580;4.656;2023-11-18T12:19:41;101577.16;;;7.94;99.06
69306;BME280;56427;51.580;4.656;2023-11-18T12:22:14;101562.47;;;7.96;98.96
69306;BME280;56427;51.580;4.656;2023-11-18T12:33:03;101519.38;;;7.96;99.74
69306;BME280;56427;51.580;4.656;2023-11-18T12:38:46;101477.31;;;7.91;100.00
69306;BME280;56427;51.580;4.656;2023-11-18T12:41:35;101464.41;;;7.93;100.00
69306;BME280;56427;51.580;4.656;2023-11-18T12:44:30;101464.34;;;7.94;100.00
69306;BME280;56427;51.580;4.656;2023-11-18T12:47:04;101453.97;;;7.96;100.00
69306;BME280;56427;51.580;4.656;2023-11-18T12:49:41;101459.13;;;7.96;100.00
69306;BME280;56427;51.580;4.656;2023-11-18T12:52:12;101438.50;;;7.94;100.00
69306;BME280;56427;51.580;4.656;2023-11-18T12:54:40;101435.81;;;7.99;100.00
69306;BME280;56427;51.580;4.656;2023-11-18T12:57:12;101422.91;;;7.97;100.00
69306;BME280;56427;51.580;4.656;2023-11-18T12:59:41;101424.66;;;7.97;100.00
69306;BME280;56427;51.580;4.656;2023-11-18T13:02:10;101414.41;;;7.94;100.00
69306;BME280;56427;51.580;4.656;2023-11-18T13:04:47;101410.03;;;7.96;100.00
69306;BME280;56427;51.580;4.656;2023-11-18T13:07:17;101393.69;;;7.95;100.00
69306;BME280;56427;51.580;4.656;2023-11-18T13:09:43;101401.41;;;7.97;100.00
69306;BME280;56427;51.580;4.656;2023-11-18T13:12:11;101416.06;;;7.96;100.00
69306;BME280;56427;51.580;4.656;2023-11-18T13:14:40;101432.38;;;7.98;100.00
69306;BME280;56427;51.580;4.656;2023-11-18T13:17:11;101437.44;;;8.01;100.00
69306;BME280;56427;51.580;4.656;2023-11-18T13:19:38;101426.34;;;7.98;100.00
69306;BME280;56427;51.580;4.656;2023-11-18T13:22:05;101413.41;;;7.99;100.00
69306;BME280;56427;51.580;4.656;2023-11-18T13:24:41;101411.66;;;8.00;100.00
69306;BME280;56427;51.580;4.656;2023-11-18T13:27:11;101384.97;;;7.99;100.00